Time;durP1;ratioP1;P1;durP2;ratioP2;P2;SDS_P1;SDS_P2;PMS_P1;PMS_P2;Temp;Humidity;BMP_temperature;BMP_pressure;BME280_temperature;BME280_humidity;BME280_pressure;Samples;Min_cycle;Max_cycle;Signal;HPM_P1;HPM_P2
2024/01/28 00:00:44;;;;;;;21.08;5.20;;;2.00;99.90;;;;;;5107719;28;20429;-82
2024/01/28 00:03:10;;;;;;;27.30;6.30;;;2.00;99.90;;;;;;5107925;28;20156;-81
2024/01/28 00:05:36;;;;;;;23.87;5.77;;;2.00;99.90;;;;;;5105273;28;20192;-81
2024/01/28 00:08:04;;;;;;;25.65;6.10;;;2.00;99.90;;;;;;5106576;28;20191;-81
2024/01/28 00:10:29;;;;;;;24.67;6.25;;;2.00;99.90;;;;;;5097596;28;20213;-82
2024/01/28 00:12:56;;;;;;;22.20;6.93;;;2.10;99.90;;;;;;5093052;28;20161;-82
2024/01/28 00:15:22;;;;;;;27.08;6.30;;;2.00;99.90;;;;;;5093167;28;20190;-82
2024/01/28 00:17:48;;;;;;;29.00;6.75;;;2.00;99.90;;;;;;5091589;28;20596;-83
2024/01/28 00:20:14;;;;;;;26.17;6.30;;;2.00;99.90;;;;;;5092801;28;20161;-82
2024/01/28 00:22:40;;;;;;;22.23;5.38;;;2.00;99.90;;;;;;5093450;28;20403;-83
2024/01/28 00:25:06;;;;;;;22.83;5.80;;;2.00;99.90;;;;;;5093472;28;20251;-82
2024/01/28 00:27:31;;;;;;;24.00;5.67;;;2.00;99.90;;;;;;5092979;28;20554;-82
2024/01/28 00:29:57;;;;;;;21.73;5.73;;;1.90;99.90;;;;;;5093532;28;20923;-82
2024/01/28 00:32:23;;;;;;;26.47;4.90;;;2.00;99.90;;;;;;5093323;28;20165;-81
2024/01/28 00:34:48;;;;;;;25.40;5.33;;;2.00;99.90;;;;;;5093282;28;20168;-82
2024/01/28 00:37:14;;;;;;;26.03;5.37;;;2.00;99.90;;;;;;5093372;28;20181;-83
2024/01/28 00:39:39;;;;;;;24.27;5.50;;;1.90;99.90;;;;;;5092724;28;20607;-82
2024/01/28 00:42:05;;;;;;;21.83;4.57;;;2.00;99.90;;;;;;5092602;28;20169;-81
2024/01/28 00:44:31;;;;;;;20.77;4.70;;;2.00;99.90;;;;;;5092807;28;20169;-82
2024/01/28 00:46:57;;;;;;;24.48;4.97;;;2.00;99.90;;;;;;5092503;28;20425;-81
2024/01/28 00:49:29;;;;;;;21.88;4.88;;;2.00;99.90;;;;;;5091760;28;20188;-82
2024/01/28 00:51:56;;;;;;;21.75;4.57;;;2.00;99.90;;;;;;5093179;28;20145;-81
2024/01/28 00:54:23;;;;;;;20.40;4.43;;;2.00;99.90;;;;;;5091326;28;20176;-82
2024/01/28 00:56:48;;;;;;;23.23;4.82;;;2.00;99.90;;;;;;5092281;28;20244;-82
2024/01/28 00:59:14;;;;;;;22.93;6.00;;;1.90;99.90;;;;;;5091236;28;20253;-82
2024/01/28 01:01:40;;;;;;;22.40;5.63;;;1.90;99.90;;;;;;5091921;28;20168;-82
2024/01/28 01:04:05;;;;;;;24.53;5.83;;;1.90;99.90;;;;;;5092735;28;20232;-82
2024/01/28 01:06:31;;;;;;;23.13;5.50;;;1.90;99.90;;;;;;5090723;28;20188;-82
2024/01/28 01:08:57;;;;;;;23.97;5.33;;;1.90;99.90;;;;;;5092447;28;20781;-82
2024/01/28 01:11:23;;;;;;;25.87;5.53;;;1.90;99.90;;;;;;5092311;28;20176;-82
2024/01/28 01:13:52;;;;;;;23.00;4.93;;;1.80;99.90;;;;;;5091236;28;20411;-82
2024/01/28 01:16:18;;;;;;;29.33;5.78;;;1.90;99.90;;;;;;5092503;28;20399;-82
2024/01/28 01:18:44;;;;;;;21.23;5.30;;;1.90;99.90;;;;;;5091949;28;20281;-83
2024/01/28 01:21:09;;;;;;;22.08;5.75;;;1.90;99.90;;;;;;5092796;28;20207;-82
2024/01/28 01:23:35;;;;;;;23.37;5.20;;;1.90;99.90;;;;;;5092682;28;20168;-82
2024/01/28 01:26:01;;;;;;;22.33;5.20;;;1.90;99.90;;;;;;5093269;28;20192;-82
2024/01/28 01:28:31;;;;;;;21.40;5.32;;;1.90;99.90;;;;;;5092446;28;20267;-83
2024/01/28 01:31:02;;;;;;;23.92;5.50;;;1.80;99.90;;;;;;5092811;28;20148;-82
2024/01/28 01:33:27;;;;;;;22.27;4.68;;;1.80;99.90;;;;;;5092734;28;20182;-82
2024/01/28 01:35:53;;;;;;;23.53;4.90;;;1.80;99.90;;;;;;5092490;28;20160;-82
2024/01/28 01:38:19;;;;;;;25.63;5.90;;;1.80;99.90;;;;;;5092310;28;20669;-82
2024/01/28 01:40:45;;;;;;;23.48;5.82;;;1.80;99.90;;;;;;5091648;28;20726;-82
2024/01/28 01:43:10;;;;;;;21.90;5.10;;;1.80;99.90;;;;;;5092961;28;20169;-82
2024/01/28 01:45:42;;;;;;;24.93;5.40;;;1.80;99.90;;;;;;5093226;28;20220;-82
2024/01/28 01:48:11;;;;;;;24.35;5.22;;;1.80;99.90;;;;;;5092653;28;20238;-82
2024/01/28 01:50:41;;;;;;;30.08;5.70;;;1.80;99.90;;;;;;5092050;28;20177;-83
2024/01/28 01:53:09;;;;;;;20.08;4.65;;;1.80;99.90;;;;;;5091808;28;20164;-82
2024/01/28 01:55:36;;;;;;;20.75;5.40;;;1.70;99.90;;;;;;5092531;28;20171;-82
2024/01/28 01:58:03;;;;;;;19.67;4.47;;;1.70;99.90;;;;;;5091716;28;20196;-82
2024/01/28 02:00:34;;;;;;;22.63;5.97;;;1.70;99.90;;;;;;5092252;28;20161;-82
2024/01/28 02:03:01;;;;;;;22.35;5.13;;;1.70;99.90;;;;;;5092405;28;20152;-82
2024/01/28 02:05:27;;;;;;;22.45;4.47;;;1.70;99.90;;;;;;5092148;28;20672;-82
2024/01/28 02:07:52;;;;;;;23.50;4.40;;;1.70;99.90;;;;;;5090421;28;20192;-82
2024/01/28 02:10:21;;;;;;;27.03;4.67;;;1.70;99.90;;;;;;5092112;28;20160;-81
2024/01/28 02:12:49;;;;;;;32.60;5.70;;;1.70;99.90;;;;;;5090574;28;20415;-82
2024/01/28 02:15:16;;;;;;;24.25;5.20;;;1.70;99.90;;;;;;5092267;28;20168;-82
2024/01/28 02:17:41;;;;;;;29.83;5.85;;;1.70;99.90;;;;;;5091323;28;20185;-82
2024/01/28 02:20:07;;;;;;;24.67;4.40;;;1.80;99.90;;;;;;5090856;28;20164;-83
2024/01/28 02:22:33;;;;;;;21.85;3.75;;;1.80;99.90;;;;;;5091291;28;20172;-82
2024/01/28 02:24:59;;;;;;;22.03;3.93;;;1.80;99.90;;;;;;5091731;28;20164;-83
2024/01/28 02:27:24;;;;;;;21.10;5.00;;;1.80;99.90;;;;;;5091523;28;20184;-82
2024/01/28 02:29:50;;;;;;;23.53;5.30;;;1.80;99.90;;;;;;5091559;28;20172;-82
2024/01/28 02:32:17;;;;;;;23.90;4.27;;;1.80;99.90;;;;;;5091117;28;20245;-82
2024/01/28 02:34:43;;;;;;;21.55;4.10;;;1.80;99.90;;;;;;5091168;28;20164;-81
2024/01/28 02:37:10;;;;;;;25.48;3.75;;;1.90;99.90;;;;;;5091891;28;20650;-83
2024/01/28 02:39:36;;;;;;;20.50;4.15;;;1.90;99.90;;;;;;5091173;28;20188;-82
2024/01/28 02:42:03;;;;;;;18.80;4.13;;;1.90;99.90;;;;;;5090113;28;20172;-82
2024/01/28 02:44:29;;;;;;;20.92;4.60;;;1.90;99.90;;;;;;5089939;28;20198;-81
2024/01/28 02:46:55;;;;;;;19.50;4.40;;;1.90;99.90;;;;;;5091328;28;20247;-82
2024/01/28 02:49:23;;;;;;;19.90;4.80;;;1.90;99.90;;;;;;5090956;28;20676;-82
2024/01/28 02:51:52;;;;;;;20.42;4.03;;;1.90;99.90;;;;;;5089980;28;20172;-81
2024/01/28 02:54:18;;;;;;;20.48;3.70;;;1.90;99.90;;;;;;5090977;28;20175;-82
2024/01/28 02:56:44;;;;;;;23.35;4.00;;;1.90;99.90;;;;;;5090929;28;20189;-82
2024/01/28 02:59:15;;;;;;;21.50;4.07;;;2.00;99.90;;;;;;5089303;28;20210;-83
2024/01/28 03:01:48;;;;;;;30.10;3.70;;;2.00;99.90;;;;;;5091174;28;20152;-82
2024/01/28 03:04:16;;;;;;;23.33;3.88;;;2.00;99.90;;;;;;5090775;28;20195;-82
2024/01/28 03:06:42;;;;;;;25.70;4.25;;;2.10;99.90;;;;;;5091054;28;20187;-82
2024/01/28 03:09:08;;;;;;;22.87;4.90;;;2.10;99.90;;;;;;5089506;28;20232;-82
2024/01/28 03:11:35;;;;;;;21.23;4.80;;;2.10;99.90;;;;;;5089858;28;20411;-82
2024/01/28 03:14:00;;;;;;;21.50;4.50;;;2.10;99.90;;;;;;5090318;28;20216;-82
2024/01/28 03:16:26;;;;;;;20.30;3.60;;;2.20;99.90;;;;;;5090500;28;20172;-81
2024/01/28 03:18:51;;;;;;;23.50;4.60;;;2.20;99.90;;;;;;5090539;28;20188;-82
2024/01/28 03:21:17;;;;;;;30.80;5.40;;;2.10;99.90;;;;;;5090091;28;20160;-82
2024/01/28 03:23:43;;;;;;;22.20;5.00;;;2.10;99.90;;;;;;5090069;28;20229;-82
2024/01/28 03:26:12;;;;;;;22.10;6.03;;;2.00;99.90;;;;;;5090236;28;20402;-82
2024/01/28 03:28:38;;;;;;;24.05;5.25;;;2.00;99.90;;;;;;5089906;28;20168;-82
2024/01/28 03:31:04;;;;;;;18.60;4.67;;;2.00;99.90;;;;;;5090713;28;20160;-82
2024/01/28 03:33:30;;;;;;;29.38;5.70;;;2.00;99.90;;;;;;5090102;28;20169;-82
2024/01/28 03:35:56;;;;;;;19.23;3.90;;;1.90;99.90;;;;;;5089329;28;20169;-81
2024/01/28 03:38:22;;;;;;;24.55;4.75;;;1.90;99.90;;;;;;5089858;28;20449;-82
2024/01/28 03:40:47;;;;;;;23.07;4.33;;;1.90;99.90;;;;;;5090327;28;20179;-81
2024/01/28 03:43:13;;;;;;;22.80;4.53;;;1.90;99.90;;;;;;5089682;28;20403;-82
2024/01/28 03:45:39;;;;;;;23.47;5.30;;;1.80;99.90;;;;;;5091011;28;20176;-82
2024/01/28 03:48:05;;;;;;;23.73;4.87;;;1.80;99.90;;;;;;5092826;28;20248;-82
2024/01/28 03:50:31;;;;;;;21.73;4.47;;;1.80;99.90;;;;;;5093468;28;20410;-82
2024/01/28 03:52:56;;;;;;;21.60;5.00;;;1.80;99.90;;;;;;5092885;28;20168;-82
2024/01/28 03:55:22;;;;;;;27.80;4.90;;;1.80;99.90;;;;;;5094045;28;20184;-82
2024/01/28 03:57:48;;;;;;;39.43;4.80;;;1.80;99.90;;;;;;5093786;28;20240;-82
2024/01/28 04:00:14;;;;;;;20.30;4.00;;;1.80;99.90;;;;;;5093489;28;20198;-82
2024/01/28 04:02:41;;;;;;;20.27;4.35;;;1.70;99.90;;;;;;5091700;28;20199;-82
2024/01/28 04:05:08;;;;;;;20.50;5.43;;;1.70;99.90;;;;;;5092503;28;20164;-82
2024/01/28 04:07:33;;;;;;;26.08;4.57;;;1.70;99.90;;;;;;5091464;28;20188;-82
2024/01/28 04:09:59;;;;;;;19.33;4.77;;;1.70;99.90;;;;;;5092340;28;20177;-82
2024/01/28 04:12:25;;;;;;;22.23;5.20;;;1.70;99.90;;;;;;5093250;28;20168;-82
2024/01/28 04:14:50;;;;;;;23.90;5.27;;;1.70;99.90;;;;;;5091611;28;20173;-82
2024/01/28 04:17:16;;;;;;;22.17;3.97;;;1.70;99.90;;;;;;5091127;28;20196;-82
2024/01/28 04:19:42;;;;;;;19.67;4.70;;;1.70;99.90;;;;;;5092665;28;20188;-82
2024/01/28 04:22:10;;;;;;;22.97;4.50;;;1.70;99.90;;;;;;5092497;28;20399;-82
2024/01/28 04:24:36;;;;;;;24.92;4.90;;;1.60;99.90;;;;;;5091978;28;20252;-80
2024/01/28 04:27:02;;;;;;;23.97;4.90;;;1.60;99.90;;;;;;5090434;28;20188;-82
2024/01/28 04:29:28;;;;;;;31.88;4.47;;;1.70;99.90;;;;;;5091732;28;20433;-83
2024/01/28 04:31:54;;;;;;;18.83;4.50;;;1.60;99.90;;;;;;5091415;28;20172;-82
2024/01/28 04:34:20;;;;;;;20.63;5.00;;;1.60;99.90;;;;;;5091047;28;20413;-82
2024/01/28 04:36:46;;;;;;;20.00;4.22;;;1.60;99.90;;;;;;5091430;28;20222;-82
2024/01/28 04:39:12;;;;;;;19.23;4.00;;;1.60;99.90;;;;;;5091214;28;20666;-81
2024/01/28 04:41:39;;;;;;;20.05;3.85;;;1.60;99.90;;;;;;5091830;28;20157;-81
2024/01/28 04:44:05;;;;;;;24.88;5.18;;;1.70;99.90;;;;;;5091808;28;20152;-80
2024/01/28 04:46:30;;;;;;;18.93;4.50;;;1.70;99.90;;;;;;5091804;28;20192;-82
2024/01/28 04:48:56;;;;;;;20.67;4.40;;;1.70;99.90;;;;;;5091035;28;20421;-82
2024/01/28 04:51:22;;;;;;;22.15;4.47;;;1.80;99.90;;;;;;5091835;28;20195;-82
2024/01/28 04:53:48;;;;;;;21.93;4.57;;;1.70;99.90;;;;;;5091204;28;20164;-81
2024/01/28 04:56:14;;;;;;;19.20;4.03;;;1.80;99.90;;;;;;5091779;28;20403;-81
2024/01/28 04:58:39;;;;;;;18.27;3.37;;;1.80;99.90;;;;;;5090258;28;20258;-81
2024/01/28 05:01:05;;;;;;;27.27;4.60;;;1.80;99.90;;;;;;5090778;28;20175;-82
2024/01/28 05:03:31;;;;;;;19.70;4.17;;;1.80;99.90;;;;;;5089919;28;20192;-82
2024/01/28 05:05:59;;;;;;;23.63;4.30;;;1.80;99.90;;;;;;5090469;28;20399;-82
2024/01/28 05:08:25;;;;;;;18.80;3.50;;;1.90;99.90;;;;;;5089617;28;20426;-82
2024/01/28 05:10:51;;;;;;;21.90;4.45;;;1.90;99.90;;;;;;5091101;28;20160;-82
2024/01/28 05:13:17;;;;;;;23.42;5.30;;;1.90;99.90;;;;;;5089853;28;20199;-81
2024/01/28 05:15:43;;;;;;;22.63;5.10;;;2.00;99.90;;;;;;5090638;28;20176;-82
2024/01/28 05:18:08;;;;;;;22.40;4.40;;;1.90;99.90;;;;;;5088326;28;20211;-82
2024/01/28 05:20:34;;;;;;;28.30;4.80;;;1.90;99.90;;;;;;5090122;28;20172;-81
2024/01/28 05:23:00;;;;;;;20.60;4.00;;;1.90;99.90;;;;;;5089449;28;20168;-82
2024/01/28 05:25:26;;;;;;;21.63;4.67;;;1.90;99.90;;;;;;5087556;28;20161;-82
2024/01/28 05:27:52;;;;;;;27.73;4.63;;;1.90;99.90;;;;;;5087680;28;20191;-81
2024/01/28 05:30:18;;;;;;;20.63;4.30;;;1.90;99.90;;;;;;5086219;28;20625;-81
2024/01/28 05:32:43;;;;;;;23.50;4.80;;;1.90;99.90;;;;;;5086779;28;20187;-81
2024/01/28 05:35:10;;;;;;;19.60;3.50;;;1.90;99.70;;;;;;5085602;28;20164;-80
2024/01/28 05:37:39;;;;;;;18.15;3.50;;;1.90;99.60;;;;;;5086147;28;20328;-81
2024/01/28 05:40:05;;;;;;;18.10;4.05;;;2.00;98.10;;;;;;5084425;28;20157;-81
2024/01/28 05:42:31;;;;;;;18.05;3.75;;;1.90;97.30;;;;;;5085108;28;20172;-81
2024/01/28 05:44:56;;;;;;;23.33;4.40;;;1.90;97.60;;;;;;5083271;28;20161;-81
2024/01/28 05:47:22;;;;;;;19.83;3.50;;;1.90;97.70;;;;;;5084307;28;20180;-81
2024/01/28 05:49:48;;;;;;;21.07;4.10;;;1.90;97.00;;;;;;5084987;28;20195;-81
2024/01/28 05:52:13;;;;;;;20.57;3.43;;;1.80;97.30;;;;;;5084552;28;20198;-80
2024/01/28 05:54:41;;;;;;;20.90;4.70;;;1.80;97.80;;;;;;5085187;28;20534;-81
2024/01/28 05:57:10;;;;;;;19.58;3.83;;;1.90;99.20;;;;;;5084033;28;20185;-81
2024/01/28 05:59:36;;;;;;;17.35;3.25;;;1.90;98.70;;;;;;5083960;28;20204;-80
2024/01/28 06:02:03;;;;;;;24.40;4.38;;;1.90;97.00;;;;;;5084706;28;20165;-80
2024/01/28 06:04:29;;;;;;;25.70;3.75;;;1.90;97.60;;;;;;5084096;28;20633;-81
2024/01/28 06:06:54;;;;;;;19.23;4.00;;;1.90;96.30;;;;;;5084654;28;20321;-81
2024/01/28 06:09:20;;;;;;;19.20;3.10;;;1.90;95.90;;;;;;5082518;28;20176;-82
2024/01/28 06:11:46;;;;;;;19.07;4.03;;;1.90;95.40;;;;;;5085386;28;20191;-80
2024/01/28 06:14:12;;;;;;;18.65;4.18;;;1.90;94.50;;;;;;5083496;28;20236;-80
2024/01/28 06:16:38;;;;;;;20.93;3.80;;;1.90;93.50;;;;;;5083088;28;20267;-81
2024/01/28 06:19:04;;;;;;;25.67;4.23;;;2.00;93.20;;;;;;5083096;28;20213;-82
2024/01/28 06:21:30;;;;;;;17.47;4.17;;;2.00;92.70;;;;;;5085002;28;20423;-81
2024/01/28 06:23:55;;;;;;;18.93;3.20;;;2.00;91.70;;;;;;5082482;28;20407;-80
2024/01/28 06:26:21;;;;;;;18.93;3.83;;;2.00;91.70;;;;;;5084881;28;20531;-80
2024/01/28 06:28:48;;;;;;;20.33;4.00;;;2.00;91.60;;;;;;5082506;28;20211;-82
2024/01/28 06:31:14;;;;;;;20.40;4.65;;;2.00;91.40;;;;;;5084226;28;20165;-80
2024/01/28 06:33:40;;;;;;;21.27;4.20;;;2.00;91.90;;;;;;5084092;28;20168;-81
2024/01/28 06:36:07;;;;;;;21.55;4.25;;;1.90;92.50;;;;;;5084211;28;20172;-80
2024/01/28 06:38:32;;;;;;;27.55;4.80;;;1.90;93.30;;;;;;5084320;28;20227;-82
2024/01/28 06:40:58;;;;;;;22.87;4.50;;;1.90;93.20;;;;;;5084072;28;20165;-81
2024/01/28 06:43:25;;;;;;;22.75;4.22;;;1.90;94.30;;;;;;5083192;28;20157;-80
2024/01/28 06:45:54;;;;;;;20.00;4.40;;;1.90;93.70;;;;;;5082445;28;20168;-80
2024/01/28 06:48:21;;;;;;;19.77;3.55;;;1.90;93.70;;;;;;5083420;28;20200;-80
2024/01/28 06:50:48;;;;;;;19.05;4.45;;;2.00;92.90;;;;;;5082841;28;20164;-80
2024/01/28 06:53:13;;;;;;;20.60;3.70;;;2.00;92.20;;;;;;5082927;28;20228;-80
2024/01/28 06:55:39;;;;;;;22.53;3.87;;;2.00;91.70;;;;;;5083698;28;20192;-82
2024/01/28 06:58:05;;;;;;;23.07;4.00;;;2.00;90.20;;;;;;5082986;28;20196;-80
2024/01/28 07:00:30;;;;;;;23.73;3.87;;;2.00;90.30;;;;;;5083724;28;20201;-80
2024/01/28 07:02:56;;;;;;;23.10;4.00;;;2.00;89.90;;;;;;5082309;28;20175;-80
2024/01/28 07:05:22;;;;;;;23.90;4.53;;;2.00;90.30;;;;;;5082923;28;20403;-81
2024/01/28 07:07:48;;;;;;;20.30;4.22;;;2.00;90.70;;;;;;5082358;28;20210;-81
2024/01/28 07:10:15;;;;;;;21.88;4.65;;;2.00;90.60;;;;;;5083083;28;20164;-80
2024/01/28 07:12:41;;;;;;;18.50;4.35;;;2.10;90.30;;;;;;5081850;28;20188;-80
2024/01/28 07:15:07;;;;;;;24.75;4.45;;;2.10;89.90;;;;;;5082316;28;20168;-80
2024/01/28 07:17:33;;;;;;;18.65;3.95;;;2.00;86.90;;;;;;5082169;28;20260;-81
2024/01/28 07:19:58;;;;;;;23.63;4.50;;;2.00;90.40;;;;;;5084429;28;20207;-80
2024/01/28 07:22:24;;;;;;;22.10;3.87;;;2.00;90.90;;;;;;5086571;28;20165;-81
2024/01/28 07:24:50;;;;;;;20.10;4.90;;;2.10;90.00;;;;;;5087205;28;20163;-81
2024/01/28 07:27:16;;;;;;;19.80;4.17;;;2.10;86.10;;;;;;5086133;28;20573;-81
2024/01/28 07:29:43;;;;;;;20.57;3.90;;;2.10;82.80;;;;;;5087359;28;20509;-80
2024/01/28 07:32:13;;;;;;;20.83;4.90;;;2.10;85.00;;;;;;5085880;28;20203;-80
2024/01/28 07:34:39;;;;;;;20.95;3.88;;;2.10;83.10;;;;;;5087261;28;20145;-81
2024/01/28 07:37:05;;;;;;;17.73;3.83;;;2.10;81.80;;;;;;5085835;28;20188;-80
2024/01/28 07:39:31;;;;;;;25.60;4.40;;;2.10;80.60;;;;;;5086450;28;20220;-81
2024/01/28 07:41:58;;;;;;;20.27;4.40;;;2.10;81.60;;;;;;5087479;28;20482;-80
2024/01/28 07:44:24;;;;;;;21.33;4.15;;;2.10;82.60;;;;;;5086646;28;20159;-81
2024/01/28 07:46:51;;;;;;;21.17;4.15;;;2.10;81.00;;;;;;5086228;28;20267;-81
2024/01/28 07:49:17;;;;;;;18.65;3.90;;;2.10;77.40;;;;;;5084873;28;20169;-82
2024/01/28 07:51:43;;;;;;;23.87;4.33;;;2.20;69.50;;;;;;5084751;28;20712;-81
2024/01/28 07:54:09;;;;;;;23.30;4.67;;;2.20;67.20;;;;;;5085891;28;20165;-81
2024/01/28 07:56:34;;;;;;;30.92;4.25;;;2.20;63.80;;;;;;5085402;28;20661;-81
2024/01/28 07:59:00;;;;;;;21.13;4.17;;;2.20;59.60;;;;;;5083712;28;20254;-81
2024/01/28 08:01:30;;;;;;;23.10;4.90;;;2.20;57.70;;;;;;5085759;28;20642;-81
2024/01/28 08:03:58;;;;;;;17.58;3.88;;;2.20;55.90;;;;;;5086509;28;20401;-80
2024/01/28 08:06:24;;;;;;;22.00;3.40;;;2.20;52.90;;;;;;5086241;28;20172;-81
2024/01/28 08:08:50;;;;;;;17.43;3.70;;;2.30;50.30;;;;;;5086169;28;20679;-81
2024/01/28 08:11:16;;;;;;;19.73;3.97;;;2.30;50.40;;;;;;5084375;28;20163;-81
2024/01/28 08:13:42;;;;;;;26.43;4.30;;;2.30;46.90;;;;;;5087715;28;20600;-81
2024/01/28 08:16:07;;;;;;;22.80;5.20;;;2.30;48.50;;;;;;5085893;28;20230;-80
2024/01/28 08:18:33;;;;;;;20.77;4.30;;;2.30;53.00;;;;;;5083115;28;20238;-81
2024/01/28 08:20:59;;;;;;;20.73;4.10;;;2.30;49.30;;;;;;5085847;28;20247;-81
2024/01/28 08:23:29;;;;;;;18.40;4.20;;;2.40;48.20;;;;;;5082876;28;20168;-80
2024/01/28 08:25:54;;;;;;;19.58;4.03;;;2.40;48.70;;;;;;5083275;28;20175;-81
2024/01/28 08:28:21;;;;;;;17.23;3.70;;;2.40;48.10;;;;;;5084798;28;20263;-81
2024/01/28 08:30:47;;;;;;;22.65;4.25;;;2.40;47.00;;;;;;5087011;28;20406;-82
2024/01/28 08:33:13;;;;;;;25.02;4.93;;;2.50;44.30;;;;;;5085048;28;20165;-81
2024/01/28 08:35:39;;;;;;;18.47;3.90;;;2.60;39.60;;;;;;5083652;28;20666;-80
2024/01/28 08:38:05;;;;;;;23.57;3.40;;;2.60;37.50;;;;;;5083563;28;20192;-80
2024/01/28 08:40:31;;;;;;;19.60;3.40;;;2.60;42.00;;;;;;5085638;28;20398;-80
2024/01/28 08:42:57;;;;;;;19.85;3.60;;;2.60;36.30;;;;;;5085655;28;20169;-82
2024/01/28 08:45:23;;;;;;;18.07;3.47;;;2.60;32.50;;;;;;5085489;28;20176;-81
2024/01/28 08:47:49;;;;;;;22.33;4.45;;;2.70;32.50;;;;;;5087257;28;20443;-83
2024/01/28 08:50:18;;;;;;;17.95;3.40;;;2.70;34.20;;;;;;5089248;28;20284;-82
2024/01/28 08:52:43;;;;;;;20.95;3.78;;;2.80;27.20;;;;;;5084916;28;20165;-80
2024/01/28 08:55:09;;;;;;;24.17;4.27;;;2.80;23.40;;;;;;5084070;28;20171;-80
2024/01/28 08:57:35;;;;;;;19.60;4.60;;;2.90;25.30;;;;;;5083899;28;20180;-82
2024/01/28 09:00:01;;;;;;;22.23;3.63;;;2.90;23.20;;;;;;5083527;28;20770;-81
2024/01/28 09:02:27;;;;;;;17.98;3.53;;;3.00;17.10;;;;;;5082768;28;20218;-82
2024/01/28 09:04:53;;;;;;;24.30;4.53;;;3.10;15.20;;;;;;5084127;28;20165;-81
2024/01/28 09:07:18;;;;;;;23.37;4.90;;;3.10;14.70;;;;;;5082718;28;20438;-81
2024/01/28 09:09:44;;;;;;;18.40;3.80;;;3.20;15.10;;;;;;5084403;28;20418;-81
2024/01/28 09:12:10;;;;;;;17.20;4.03;;;3.20;11.00;;;;;;5082248;28;20206;-81
2024/01/28 09:14:36;;;;;;;19.10;4.10;;;3.20;6.80;;;;;;5084349;28;20161;-80
2024/01/28 09:17:02;;;;;;;28.73;5.32;;;3.20;6.30;;;;;;5081554;28;20558;-82
2024/01/28 09:19:27;;;;;;;20.30;3.97;;;3.30;3.30;;;;;;5083398;28;20259;-81
2024/01/28 09:21:54;;;;;;;20.07;3.87;;;3.30;1.60;;;;;;5084474;28;20200;-81
2024/01/28 09:24:19;;;;;;;17.55;3.50;;;3.40;1.30;;;;;;5084049;28;20534;-81
2024/01/28 09:26:46;;;;;;;17.70;3.93;;;3.40;2.00;;;;;;5083657;28;20188;-80
2024/01/28 09:29:11;;;;;;;35.65;4.50;;;3.40;1.00;;;;;;5083664;28;20155;-81
2024/01/28 09:31:37;;;;;;;23.97;4.50;;;3.50;1.00;;;;;;5082539;28;20612;-80
2024/01/28 09:34:04;;;;;;;18.63;3.77;;;3.50;1.00;;;;;;5082970;28;20626;-81
2024/01/28 09:36:29;;;;;;;18.77;3.83;;;3.60;1.00;;;;;;5083627;28;20215;-81
2024/01/28 09:38:55;;;;;;;32.70;4.00;;;3.60;1.00;;;;;;5084521;28;20192;-80
2024/01/28 09:42:00;;;;;;;20.67;3.70;;;3.70;1.00;;;;;;5083798;28;20426;-80
2024/01/28 09:44:25;;;;;;;20.60;3.65;;;3.70;1.00;;;;;;5081388;28;20180;-80
2024/01/28 09:46:51;;;;;;;26.83;4.17;;;3.80;1.00;;;;;;5083315;28;20309;-81
2024/01/28 09:49:19;;;;;;;24.23;4.47;;;3.90;1.00;;;;;;5082961;28;20176;-82
2024/01/28 09:51:44;;;;;;;19.63;3.40;;;3.90;1.00;;;;;;5081088;28;20407;-80
2024/01/28 09:54:13;;;;;;;17.67;3.30;;;4.00;1.00;;;;;;5082884;28;20722;-80
2024/01/28 09:56:41;;;;;;;22.13;4.25;;;4.10;1.00;;;;;;5082843;28;20203;-81
2024/01/28 09:59:08;;;;;;;24.13;3.70;;;4.20;1.00;;;;;;5082344;28;20237;-80
2024/01/28 10:01:34;;;;;;;20.95;4.28;;;4.20;1.00;;;;;;5083327;28;20161;-81
2024/01/28 10:04:01;;;;;;;27.60;3.78;;;4.40;1.00;;;;;;5082508;28;20157;-80
2024/01/28 10:06:27;;;;;;;19.55;3.33;;;4.40;1.00;;;;;;5082516;28;20156;-81
2024/01/28 10:08:52;;;;;;;22.73;3.93;;;4.50;1.00;;;;;;5080216;28;20214;-81
2024/01/28 10:11:18;;;;;;;18.90;3.77;;;4.60;1.00;;;;;;5082783;28;20164;-81
2024/01/28 10:13:46;;;;;;;24.70;3.53;;;4.70;1.00;;;;;;5080605;28;20173;-81
2024/01/28 10:16:11;;;;;;;26.45;4.30;;;4.80;1.00;;;;;;5081059;28;20448;-81
2024/01/28 10:18:40;;;;;;;20.80;4.97;;;4.90;1.00;;;;;;5081109;28;20196;-82
2024/01/28 10:21:06;;;;;;;19.15;3.35;;;5.00;1.00;;;;;;5081870;28;20164;-81
2024/01/28 10:23:36;;;;;;;19.13;4.20;;;5.10;1.00;;;;;;5081517;28;20187;-81
2024/01/28 10:26:02;;;;;;;25.20;3.42;;;5.20;1.00;;;;;;5082413;28;20188;-81
2024/01/28 10:28:29;;;;;;;19.80;3.30;;;5.30;1.00;;;;;;5081955;28;20185;-81
2024/01/28 10:30:55;;;;;;;18.05;3.22;;;5.40;1.00;;;;;;5082504;28;20157;-81
2024/01/28 10:33:21;;;;;;;19.25;2.70;;;5.50;1.00;;;;;;5082235;28;20169;-82
2024/01/28 10:35:47;;;;;;;22.70;3.83;;;5.60;1.00;;;;;;5081732;28;20236;-81
2024/01/28 10:38:22;;;;;;;18.27;3.80;;;5.70;1.00;;;;;;5079901;28;20241;-81
2024/01/28 10:40:50;;;;;;;26.67;3.90;;;5.80;1.00;;;;;;5081464;28;20144;-81
2024/01/28 10:43:20;;;;;;;19.17;3.40;;;5.80;1.00;;;;;;5079215;28;20252;-80
2024/01/28 10:45:49;;;;;;;21.05;3.95;;;5.90;1.00;;;;;;5081002;28;20533;-80
2024/01/28 10:48:18;;;;;;;19.30;3.03;;;6.10;1.00;;;;;;5080615;28;20188;-80
2024/01/28 10:50:44;;;;;;;20.08;3.88;;;6.10;1.00;;;;;;5081622;28;20161;-81
2024/01/28 10:53:12;;;;;;;18.92;3.03;;;6.10;1.00;;;;;;5079843;28;20180;-81
2024/01/28 10:55:39;;;;;;;19.38;3.65;;;6.20;1.00;;;;;;5080722;28;20540;-82
2024/01/28 10:58:05;;;;;;;18.75;3.67;;;6.30;1.00;;;;;;5080224;28;20284;-81
2024/01/28 11:00:31;;;;;;;18.90;2.70;;;6.30;1.00;;;;;;5079714;28;20230;-81
2024/01/28 11:03:07;;;;;;;18.67;3.47;;;6.50;1.00;;;;;;5081460;28;20580;-81
2024/01/28 11:05:35;;;;;;;18.67;3.92;;;6.60;1.00;;;;;;5081749;28;20149;-82
2024/01/28 11:08:01;;;;;;;16.67;2.90;;;6.60;1.00;;;;;;5065522;28;20562;-80
2024/01/28 11:10:28;;;;;;;20.63;3.28;;;6.60;1.00;;;;;;5080979;28;20167;-81
2024/01/28 11:12:56;;;;;;;18.75;3.80;;;6.70;1.00;;;;;;5080392;28;20161;-81
2024/01/28 11:15:22;;;;;;;22.20;3.40;;;6.80;1.00;;;;;;5080945;28;20164;-82
2024/01/28 11:17:50;;;;;;;19.80;3.47;;;6.80;1.00;;;;;;5080834;28;20207;-82
2024/01/28 11:20:27;;;;;;;16.92;2.88;;;6.80;1.00;;;;;;5081255;28;20239;-81
2024/01/28 11:22:58;;;;;;;20.33;3.65;;;7.00;1.00;;;;;;5082499;28;20144;-81
2024/01/28 11:25:29;;;;;;;19.50;3.55;;;7.10;1.00;;;;;;5080886;28;20171;-81
2024/01/28 11:28:05;;;;;;;21.35;3.30;;;7.20;1.00;;;;;;5081727;28;20188;-81
2024/01/28 11:30:30;;;;;;;20.20;3.30;;;7.20;1.00;;;;;;5083235;28;20160;-81
2024/01/28 11:33:11;;;;;;;18.63;3.00;;;7.30;1.00;;;;;;5081637;28;20243;-81
2024/01/28 11:35:37;;;;;;;20.23;2.50;;;7.40;1.00;;;;;;5081969;28;20161;-82
2024/01/28 11:38:06;;;;;;;20.63;3.10;;;7.40;1.00;;;;;;5081632;28;20196;-82
2024/01/28 11:40:38;;;;;;;20.63;3.20;;;7.50;1.00;;;;;;5081158;28;20414;-82
2024/01/28 11:43:08;;;;;;;18.40;3.50;;;7.60;1.00;;;;;;5080271;28;20533;-82
2024/01/28 11:45:37;;;;;;;19.42;2.67;;;7.70;1.00;;;;;;5081658;28;20161;-82
2024/01/28 11:48:08;;;;;;;19.40;3.38;;;7.60;1.00;;;;;;5081607;28;20180;-82
2024/01/28 11:50:33;;;;;;;22.13;3.70;;;7.70;1.00;;;;;;5080723;28;20195;-82
2024/01/28 11:52:59;;;;;;;16.73;3.10;;;7.80;1.00;;;;;;5082507;28;20565;-82
2024/01/28 11:55:25;;;;;;;20.13;2.80;;;7.90;1.00;;;;;;5081476;28;20391;-81
2024/01/28 11:57:51;;;;;;;18.47;3.60;;;8.00;1.00;;;;;;5082269;28;20176;-82
2024/01/28 12:00:16;;;;;;;19.53;3.20;;;8.10;1.00;;;;;;5080852;28;20180;-81
2024/01/28 12:02:43;;;;;;;16.90;2.70;;;8.10;1.00;;;;;;5081646;28;20240;-81
2024/01/28 12:05:10;;;;;;;17.95;2.85;;;8.20;1.00;;;;;;5082281;28;20403;-82
2024/01/28 12:07:39;;;;;;;18.63;3.10;;;8.20;1.00;;;;;;5083840;28;20188;-82
2024/01/28 12:10:12;;;;;;;19.98;3.35;;;8.30;1.00;;;;;;5084303;28;20168;-82
2024/01/28 12:12:42;;;;;;;21.58;3.75;;;8.30;1.00;;;;;;5084677;28;20172;-82
2024/01/28 12:15:11;;;;;;;24.88;3.63;;;8.40;1.00;;;;;;5084010;28;20156;-81
2024/01/28 12:17:38;;;;;;;17.08;2.70;;;8.40;1.00;;;;;;5084718;28;20188;-82
2024/01/28 12:20:05;;;;;;;17.95;3.20;;;8.40;1.00;;;;;;5086488;28;20286;-81
2024/01/28 12:22:38;;;;;;;20.10;2.45;;;8.40;1.00;;;;;;5084135;28;20256;-81
2024/01/28 12:25:11;;;;;;;18.75;2.55;;;8.50;1.00;;;;;;5086142;28;20251;-81
2024/01/28 12:27:40;;;;;;;20.00;2.83;;;8.40;1.00;;;;;;5083155;28;20212;-81
2024/01/28 12:30:07;;;;;;;23.77;3.25;;;8.50;1.00;;;;;;5084565;28;20196;-81
2024/01/28 12:32:33;;;;;;;16.75;2.83;;;8.50;1.00;;;;;;5084510;28;20164;-82
2024/01/28 12:35:03;;;;;;;16.20;2.70;;;8.50;1.00;;;;;;5085447;28;20160;-81
2024/01/28 12:37:30;;;;;;;16.40;2.35;;;8.50;1.00;;;;;;5084615;28;20203;-81
2024/01/28 12:39:56;;;;;;;19.83;2.40;;;8.50;1.00;;;;;;5083615;28;20247;-81
2024/01/28 12:42:22;;;;;;;16.95;2.40;;;8.60;1.00;;;;;;5083700;28;20164;-81
2024/01/28 12:44:47;;;;;;;18.77;3.37;;;8.60;1.00;;;;;;5083697;28;20202;-82
2024/01/28 12:47:13;;;;;;;18.90;2.80;;;8.60;1.00;;;;;;5083580;28;20265;-83